首页
METAR-TAF:

METAR-TAF

机场 :

金奈国际机场

金奈, 印度

纬度: 13-00N, 经度: 080-11E, 海拔: 10米

当前天气观测

该预报发布于49分钟前的23:00 UTC
风速4节,风向西
温度 29°C
湿度 74%
气压 1004 hPa
能見度: 5000
散云层高于2000英尺
少量云层高于2500英尺, 塔状积云.
散云层高于10000英尺
轻雾,

METAR: VOMM 162300Z 26004KT 5000 BR SCT020 FEW025TCU SCT100 29/24 Q1004 NOSIG

时间: 05:19 (23:49 UTC)

预报

该预报发布于49分钟前的23:00 UTC
预报有效从17日的 00点(UTC)到 18日的 06点(UTC)
风速10节,风向南转西南
能見度: 5000
少量云层高于2000英尺
散云层高于10000英尺
轻雾
成为
从 17日的 03点(UTC)到 17日的 04点(UTC)
能見度: 6000
成为
从 17日的 09点(UTC)到 17日的 10点(UTC)
风速5节,风向南转南东
成为
从 17日的 12点(UTC)到 17日的 13点(UTC)
能見度: 5000
短暂存在
从 17日的 12点(UTC)到 17日的 18点(UTC)
能見度: 3000
少量云层高于1800英尺
多云层高于8000英尺
成为
从 18日的 03点(UTC)到 18日的 04点(UTC)
能見度: 6000

TAF: VOMM 162300Z 1700/1806 21010KT 5000 BR FEW020 SCT100 BECMG 1703/1704 6000 BECMG 1709/1710 15005KT BECMG 1712/1713 5000 HZ TEMPO 1712/1718 3000 TSRA/RA FEW018 FEW025TCU/CB BKN080 BECMG 1803/1804 6000

超过4000个机场的气象观测和天气预报(METAR&TAF报告)。

可查询的气象台以黄色和红色小点在地图上表示。

将鼠标移到小点上方,可查看气象台名称。

然后点击查看天气观测和预报。

如需切换地图:点击带黑十字的绿色按钮放大地图;点击带横线的绿色按钮缩小地图;或者点击绿色箭头查看邻近地区的地图。


METAR-TAF: